sensor_id;sensor_type;location;lat;lon;timestamp;pressure;altitude;pressure_sealevel;temperature;humidity
59194;BME280;44967;48.598;15.650;2023-06-10T00:00:43;97916.53;;;15.20;89.56
59194;BME280;44967;48.598;15.650;2023-06-10T00:03:10;97918.16;;;15.23;90.02
59194;BME280;44967;48.598;15.650;2023-06-10T00:05:36;97915.19;;;15.29;90.01
59194;BME280;44967;48.598;15.650;2023-06-10T00:08:05;97913.47;;;15.28;89.61
59194;BME280;44967;48.598;15.650;2023-06-10T00:10:38;97914.03;;;15.33;89.87
59194;BME280;44967;48.598;15.650;2023-06-10T00:13:04;97910.38;;;15.35;90.00
59194;BME280;44967;48.598;15.650;2023-06-10T00:15:31;97912.09;;;15.36;90.28
59194;BME280;44967;48.598;15.650;2023-06-10T00:17:57;97898.50;;;15.41;90.59
59194;BME280;44967;48.598;15.650;2023-06-10T00:20:23;97902.81;;;15.43;90.93
59194;BME280;44967;48.598;15.650;2023-06-10T00:22:52;97903.69;;;15.44;91.07
59194;BME280;44967;48.598;15.650;2023-06-10T00:25:18;97900.16;;;15.43;91.10
59194;BME280;44967;48.598;15.650;2023-06-10T00:27:44;97907.09;;;15.46;91.39
59194;BME280;44967;48.598;15.650;2023-06-10T00:30:10;97903.50;;;15.47;91.13
59194;BME280;44967;48.598;15.650;2023-06-10T00:32:36;97920.16;;;15.35;90.96
59194;BME280;44967;48.598;15.650;2023-06-10T00:35:03;97916.88;;;15.30;91.52
59194;BME280;44967;48.598;15.650;2023-06-10T00:37:29;97919.66;;;15.28;90.87
59194;BME280;44967;48.598;15.650;2023-06-10T00:39:56;97922.44;;;15.25;90.84
59194;BME280;44967;48.598;15.650;2023-06-10T00:42:21;97920.66;;;15.26;90.85
59194;BME280;44967;48.598;15.650;2023-06-10T00:44:50;97929.84;;;15.20;90.89
59194;BME280;44967;48.598;15.650;2023-06-10T00:47:16;97925.22;;;15.24;91.22
59194;BME280;44967;48.598;15.650;2023-06-10T00:49:42;97931.31;;;15.26;90.89
59194;BME280;44967;48.598;15.650;2023-06-10T00:52:09;97935.50;;;15.30;90.86
59194;BME280;44967;48.598;15.650;2023-06-10T00:54:37;97930.97;;;15.32;90.77
59194;BME280;44967;48.598;15.650;2023-06-10T00:57:04;97927.34;;;15.33;90.50
59194;BME280;44967;48.598;15.650;2023-06-10T00:59:30;97935.44;;;15.31;91.15
59194;BME280;44967;48.598;15.650;2023-06-10T01:01:59;97930.84;;;15.18;90.76
59194;BME280;44967;48.598;15.650;2023-06-10T01:04:26;97930.09;;;15.16;91.27
59194;BME280;44967;48.598;15.650;2023-06-10T01:07:05;97935.75;;;15.09;91.13
59194;BME280;44967;48.598;15.650;2023-06-10T01:10:10;97934.50;;;15.17;91.41
59194;BME280;44967;48.598;15.650;2023-06-10T01:12:41;97939.88;;;15.15;91.17
59194;BME280;44967;48.598;15.650;2023-06-10T01:15:15;97932.75;;;15.16;91.10
59194;BME280;44967;48.598;15.650;2023-06-10T01:18:01;97931.28;;;15.10;90.85
59194;BME280;44967;48.598;15.650;2023-06-10T01:20:29;97933.34;;;15.05;91.41
59194;BME280;44967;48.598;15.650;2023-06-10T01:22:58;97932.38;;;15.06;91.57
59194;BME280;44967;48.598;15.650;2023-06-10T01:25:26;97935.22;;;15.03;91.18
59194;BME280;44967;48.598;15.650;2023-06-10T01:31:13;97932.50;;;15.04;91.57
59194;BME280;44967;48.598;15.650;2023-06-10T01:33:43;97940.13;;;15.10;91.20
59194;BME280;44967;48.598;15.650;2023-06-10T01:36:12;97936.72;;;15.08;90.61
59194;BME280;44967;48.598;15.650;2023-06-10T01:38:47;97935.75;;;15.09;90.76
59194;BME280;44967;48.598;15.650;2023-06-10T01:41:17;97937.81;;;15.04;90.85
59194;BME280;44967;48.598;15.650;2023-06-10T01:43:44;97932.72;;;15.00;90.90
59194;BME280;44967;48.598;15.650;2023-06-10T01:46:10;97945.88;;;15.03;91.43
59194;BME280;44967;48.598;15.650;2023-06-10T01:48:37;97936.84;;;15.05;91.03
59194;BME280;44967;48.598;15.650;2023-06-10T01:51:03;97932.31;;;15.07;91.51
59194;BME280;44967;48.598;15.650;2023-06-10T01:53:29;97934.72;;;15.12;91.73
59194;BME280;44967;48.598;15.650;2023-06-10T01:55:54;97941.63;;;15.16;91.62
59194;BME280;44967;48.598;15.650;2023-06-10T01:58:20;97932.75;;;15.16;91.58
59194;BME280;44967;48.598;15.650;2023-06-10T02:00:45;97941.25;;;15.22;92.23
59194;BME280;44967;48.598;15.650;2023-06-10T02:03:12;97942.75;;;15.28;92.06
59194;BME280;44967;48.598;15.650;2023-06-10T02:05:37;97937.16;;;15.32;91.94
59194;BME280;44967;48.598;15.650;2023-06-10T02:08:03;97946.84;;;15.33;91.62
59194;BME280;44967;48.598;15.650;2023-06-10T02:10:29;97941.47;;;15.35;91.77
59194;BME280;44967;48.598;15.650;2023-06-10T02:12:54;97947.41;;;15.40;91.58
59194;BME280;44967;48.598;15.650;2023-06-10T02:15:20;97940.41;;;15.37;91.25
59194;BME280;44967;48.598;15.650;2023-06-10T02:17:46;97931.75;;;15.34;91.01
59194;BME280;44967;48.598;15.650;2023-06-10T02:20:11;97931.31;;;15.26;91.30
59194;BME280;44967;48.598;15.650;2023-06-10T02:22:38;97933.38;;;15.21;91.43
59194;BME280;44967;48.598;15.650;2023-06-10T02:25:05;97929.16;;;15.17;91.58
59194;BME280;44967;48.598;15.650;2023-06-10T02:27:31;97926.22;;;15.21;91.67
59194;BME280;44967;48.598;15.650;2023-06-10T02:29:57;97937.66;;;15.23;91.92
59194;BME280;44967;48.598;15.650;2023-06-10T02:32:23;97922.56;;;15.24;92.06
59194;BME280;44967;48.598;15.650;2023-06-10T02:34:49;97920.50;;;15.29;91.83
59194;BME280;44967;48.598;15.650;2023-06-10T02:37:15;97928.38;;;15.30;92.04
59194;BME280;44967;48.598;15.650;2023-06-10T02:39:41;97930.19;;;15.30;91.88
59194;BME280;44967;48.598;15.650;2023-06-10T02:42:07;97930.97;;;15.32;91.97
59194;BME280;44967;48.598;15.650;2023-06-10T02:44:33;97927.28;;;15.34;91.76
59194;BME280;44967;48.598;15.650;2023-06-10T02:46:59;97934.22;;;15.37;91.98
59194;BME280;44967;48.598;15.650;2023-06-10T02:49:25;97940.28;;;15.40;92.07
59194;BME280;44967;48.598;15.650;2023-06-10T02:51:53;97935.78;;;15.41;91.71
59194;BME280;44967;48.598;15.650;2023-06-10T02:54:20;97939.41;;;15.40;91.72
59194;BME280;44967;48.598;15.650;2023-06-10T02:56:45;97944.56;;;15.43;91.67
59194;BME280;44967;48.598;15.650;2023-06-10T02:59:14;97945.41;;;15.43;92.01
59194;BME280;44967;48.598;15.650;2023-06-10T03:01:40;97951.44;;;15.47;91.88
59194;BME280;44967;48.598;15.650;2023-06-10T03:04:07;97948.69;;;15.48;92.21
59194;BME280;44967;48.598;15.650;2023-06-10T03:06:33;97950.34;;;15.51;92.10
59194;BME280;44967;48.598;15.650;2023-06-10T03:09:02;97945.78;;;15.53;91.80
59194;BME280;44967;48.598;15.650;2023-06-10T03:11:29;97947.31;;;15.57;92.07
59194;BME280;44967;48.598;15.650;2023-06-10T03:13:56;97949.22;;;15.55;92.00
59194;BME280;44967;48.598;15.650;2023-06-10T03:16:22;97943.91;;;15.55;92.35
59194;BME280;44967;48.598;15.650;2023-06-10T03:18:50;97950.97;;;15.56;92.46
59194;BME280;44967;48.598;15.650;2023-06-10T03:21:19;97944.50;;;15.60;92.77
59194;BME280;44967;48.598;15.650;2023-06-10T03:23:45;97948.88;;;15.61;92.72
59194;BME280;44967;48.598;15.650;2023-06-10T03:26:14;97949.66;;;15.63;92.78
59194;BME280;44967;48.598;15.650;2023-06-10T03:28:41;97952.94;;;15.68;92.89
59194;BME280;44967;48.598;15.650;2023-06-10T03:31:06;97949.31;;;15.69;92.64
59194;BME280;44967;48.598;15.650;2023-06-10T03:33:32;97956.28;;;15.72;92.38
59194;BME280;44967;48.598;15.650;2023-06-10T03:35:58;97958.94;;;15.72;92.33
59194;BME280;44967;48.598;15.650;2023-06-10T03:38:24;97956.09;;;15.75;92.20
59194;BME280;44967;48.598;15.650;2023-06-10T03:40:50;97958.66;;;15.76;92.53
59194;BME280;44967;48.598;15.650;2023-06-10T03:43:16;97962.13;;;15.78;92.02
59194;BME280;44967;48.598;15.650;2023-06-10T03:45:41;97951.47;;;15.78;91.99
59194;BME280;44967;48.598;15.650;2023-06-10T03:48:07;97953.19;;;15.79;92.03
59194;BME280;44967;48.598;15.650;2023-06-10T03:50:34;97952.31;;;15.79;91.95
59194;BME280;44967;48.598;15.650;2023-06-10T03:53:01;97958.41;;;15.81;92.15
59194;BME280;44967;48.598;15.650;2023-06-10T03:55:26;97953.75;;;15.84;92.13
59194;BME280;44967;48.598;15.650;2023-06-10T03:57:52;97956.59;;;15.81;92.02
59194;BME280;44967;48.598;15.650;2023-06-10T04:00:18;97951.09;;;15.84;92.19
59194;BME280;44967;48.598;15.650;2023-06-10T04:02:49;97960.81;;;15.85;92.32
59194;BME280;44967;48.598;15.650;2023-06-10T04:05:17;97958.69;;;15.92;92.71
59194;BME280;44967;48.598;15.650;2023-06-10T04:07:43;97958.50;;;15.95;92.29
59194;BME280;44967;48.598;15.650;2023-06-10T04:10:10;97954.84;;;15.96;92.21
59194;BME280;44967;48.598;15.650;2023-06-10T04:12:37;97947.66;;;15.98;92.55
59194;BME280;44967;48.598;15.650;2023-06-10T04:15:04;97952.97;;;15.98;92.39
59194;BME280;44967;48.598;15.650;2023-06-10T04:17:30;97965.38;;;15.99;92.61
59194;BME280;44967;48.598;15.650;2023-06-10T04:19:56;97967.94;;;16.00;92.75
59194;BME280;44967;48.598;15.650;2023-06-10T04:22:22;97972.13;;;16.04;92.23
59194;BME280;44967;48.598;15.650;2023-06-10T04:24:48;97964.25;;;16.03;92.53
59194;BME280;44967;48.598;15.650;2023-06-10T04:27:14;97969.03;;;16.12;92.44
59194;BME280;44967;48.598;15.650;2023-06-10T04:29:39;97967.22;;;16.13;92.43
59194;BME280;44967;48.598;15.650;2023-06-10T04:32:06;97969.03;;;16.12;92.88
59194;BME280;44967;48.598;15.650;2023-06-10T04:34:35;97966.03;;;16.18;92.60
59194;BME280;44967;48.598;15.650;2023-06-10T04:37:01;97964.91;;;16.22;92.47
59194;BME280;44967;48.598;15.650;2023-06-10T04:39:27;97960.31;;;16.24;92.53
59194;BME280;44967;48.598;15.650;2023-06-10T04:41:52;97965.50;;;16.27;92.15
59194;BME280;44967;48.598;15.650;2023-06-10T04:44:18;97967.19;;;16.28;91.91
59194;BME280;44967;48.598;15.650;2023-06-10T04:46:45;97966.16;;;16.31;92.17
59194;BME280;44967;48.598;15.650;2023-06-10T04:49:11;97972.25;;;16.33;91.95
59194;BME280;44967;48.598;15.650;2023-06-10T04:51:38;97980.06;;;16.36;91.68
59194;BME280;44967;48.598;15.650;2023-06-10T04:54:04;97979.13;;;16.37;91.52
59194;BME280;44967;48.598;15.650;2023-06-10T04:56:31;97984.13;;;16.43;91.47
59194;BME280;44967;48.598;15.650;2023-06-10T04:59:00;97986.41;;;16.49;91.33
59194;BME280;44967;48.598;15.650;2023-06-10T05:01:26;97983.75;;;16.49;91.29
59194;BME280;44967;48.598;15.650;2023-06-10T05:03:53;97986.06;;;16.55;91.23
59194;BME280;44967;48.598;15.650;2023-06-10T05:06:18;97987.63;;;16.59;91.23
59194;BME280;44967;48.598;15.650;2023-06-10T05:08:44;97987.25;;;16.65;91.02
59194;BME280;44967;48.598;15.650;2023-06-10T05:11:10;97991.28;;;16.72;91.02
59194;BME280;44967;48.598;15.650;2023-06-10T05:13:36;97988.59;;;16.72;90.33
59194;BME280;44967;48.598;15.650;2023-06-10T05:16:02;97995.00;;;16.70;90.45
59194;BME280;44967;48.598;15.650;2023-06-10T05:18:27;97994.81;;;16.73;89.79
59194;BME280;44967;48.598;15.650;2023-06-10T05:20:53;98000.28;;;16.85;89.91
59194;BME280;44967;48.598;15.650;2023-06-10T05:23:22;98002.28;;;16.96;89.59
59194;BME280;44967;48.598;15.650;2023-06-10T05:25:47;98001.06;;;17.02;89.37
59194;BME280;44967;48.598;15.650;2023-06-10T05:28:13;98005.34;;;17.04;88.46
59194;BME280;44967;48.598;15.650;2023-06-10T05:30:39;97995.72;;;17.16;88.23
59194;BME280;44967;48.598;15.650;2023-06-10T05:33:04;97988.50;;;17.18;88.07
59194;BME280;44967;48.598;15.650;2023-06-10T05:35:30;97983.53;;;17.26;88.38
59194;BME280;44967;48.598;15.650;2023-06-10T05:37:57;97992.00;;;17.32;88.12
59194;BME280;44967;48.598;15.650;2023-06-10T05:40:23;98001.56;;;17.36;87.97
59194;BME280;44967;48.598;15.650;2023-06-10T05:42:48;97988.28;;;17.35;87.58
59194;BME280;44967;48.598;15.650;2023-06-10T05:45:14;97992.38;;;17.40;87.97
59194;BME280;44967;48.598;15.650;2023-06-10T05:47:40;97987.03;;;17.55;87.83
59194;BME280;44967;48.598;15.650;2023-06-10T05:50:06;97999.63;;;17.53;87.29
59194;BME280;44967;48.598;15.650;2023-06-10T05:52:35;97994.91;;;17.58;87.35
59194;BME280;44967;48.598;15.650;2023-06-10T05:55:02;97989.16;;;17.64;86.59
59194;BME280;44967;48.598;15.650;2023-06-10T05:57:28;97988.09;;;17.66;85.69
59194;BME280;44967;48.598;15.650;2023-06-10T05:59:54;97991.41;;;17.70;85.66
59194;BME280;44967;48.598;15.650;2023-06-10T06:02:20;97988.09;;;17.66;85.02
59194;BME280;44967;48.598;15.650;2023-06-10T06:04:46;97994.91;;;17.58;85.63
59194;BME280;44967;48.598;15.650;2023-06-10T06:07:12;98001.78;;;17.62;86.13
59194;BME280;44967;48.598;15.650;2023-06-10T06:09:37;97995.72;;;17.58;84.46
59194;BME280;44967;48.598;15.650;2023-06-10T06:12:03;98004.72;;;17.57;85.00
59194;BME280;44967;48.598;15.650;2023-06-10T06:14:30;97996.97;;;17.53;84.76
59194;BME280;44967;48.598;15.650;2023-06-10T06:16:56;97990.22;;;17.61;85.10
59194;BME280;44967;48.598;15.650;2023-06-10T06:19:22;97994.38;;;17.79;84.90
59194;BME280;44967;48.598;15.650;2023-06-10T06:21:47;97995.31;;;17.78;83.81
59194;BME280;44967;48.598;15.650;2023-06-10T06:24:15;97999.28;;;17.73;84.66
59194;BME280;44967;48.598;15.650;2023-06-10T06:26:41;97998.28;;;17.74;84.34
59194;BME280;44967;48.598;15.650;2023-06-10T06:29:06;97990.84;;;17.79;83.87
59194;BME280;44967;48.598;15.650;2023-06-10T06:31:32;98001.31;;;17.82;83.36
59194;BME280;44967;48.598;15.650;2023-06-10T06:33:57;98000.25;;;17.99;83.72
59194;BME280;44967;48.598;15.650;2023-06-10T06:36:23;98004.72;;;17.98;82.37
59194;BME280;44967;48.598;15.650;2023-06-10T06:38:49;97997.88;;;17.94;81.85
59194;BME280;44967;48.598;15.650;2023-06-10T06:41:14;98001.91;;;18.14;81.64
59194;BME280;44967;48.598;15.650;2023-06-10T06:43:40;97998.13;;;18.57;80.81
59194;BME280;44967;48.598;15.650;2023-06-10T06:46:07;97995.97;;;19.14;78.74
59194;BME280;44967;48.598;15.650;2023-06-10T06:48:33;98000.50;;;19.39;76.74
59194;BME280;44967;48.598;15.650;2023-06-10T06:50:59;98000.28;;;19.42;77.20
59194;BME280;44967;48.598;15.650;2023-06-10T06:53:25;98002.31;;;19.26;76.96
59194;BME280;44967;48.598;15.650;2023-06-10T06:55:51;97998.13;;;19.35;76.42
59194;BME280;44967;48.598;15.650;2023-06-10T06:58:16;98008.28;;;18.79;77.86
59194;BME280;44967;48.598;15.650;2023-06-10T07:00:42;98011.22;;;18.62;77.99
59194;BME280;44967;48.598;15.650;2023-06-10T07:03:08;98013.19;;;18.72;79.45
59194;BME280;44967;48.598;15.650;2023-06-10T07:05:33;98024.53;;;18.76;79.34
59194;BME280;44967;48.598;15.650;2023-06-10T07:07:59;98022.69;;;18.76;79.16
59194;BME280;44967;48.598;15.650;2023-06-10T07:10:28;98019.47;;;18.59;78.75
59194;BME280;44967;48.598;15.650;2023-06-10T07:12:54;98020.63;;;18.55;79.48
59194;BME280;44967;48.598;15.650;2023-06-10T07:15:20;98009.19;;;18.65;79.35
59194;BME280;44967;48.598;15.650;2023-06-10T07:17:46;98015.31;;;18.67;79.05
59194;BME280;44967;48.598;15.650;2023-06-10T07:20:12;98014.59;;;18.51;79.60
59194;BME280;44967;48.598;15.650;2023-06-10T07:22:38;98016.78;;;18.59;80.38
59194;BME280;44967;48.598;15.650;2023-06-10T07:25:04;98009.84;;;18.42;79.56
59194;BME280;44967;48.598;15.650;2023-06-10T07:27:31;98017.47;;;18.48;79.80
59194;BME280;44967;48.598;15.650;2023-06-10T07:29:56;98010.88;;;18.54;80.03
59194;BME280;44967;48.598;15.650;2023-06-10T07:32:22;98020.16;;;18.48;79.67
59194;BME280;44967;48.598;15.650;2023-06-10T07:34:49;98024.72;;;18.46;80.52
59194;BME280;44967;48.598;15.650;2023-06-10T07:37:15;98022.28;;;18.43;81.16
59194;BME280;44967;48.598;15.650;2023-06-10T07:39:41;98021.03;;;18.49;80.57
59194;BME280;44967;48.598;15.650;2023-06-10T07:42:08;98017.56;;;18.47;79.49
59194;BME280;44967;48.598;15.650;2023-06-10T07:44:35;98024.91;;;18.57;80.10
59194;BME280;44967;48.598;15.650;2023-06-10T07:47:00;98023.22;;;18.56;79.79
59194;BME280;44967;48.598;15.650;2023-06-10T07:49:26;98026.75;;;18.43;79.29
59194;BME280;44967;48.598;15.650;2023-06-10T07:51:54;98030.84;;;18.48;80.07
59194;BME280;44967;48.598;15.650;2023-06-10T07:54:20;98032.19;;;18.41;79.48
59194;BME280;44967;48.598;15.650;2023-06-10T07:56:45;98033.06;;;18.42;79.44
59194;BME280;44967;48.598;15.650;2023-06-10T07:59:11;98030.47;;;18.54;79.75
59194;BME280;44967;48.598;15.650;2023-06-10T08:01:36;98027.56;;;18.57;79.86
59194;BME280;44967;48.598;15.650;2023-06-10T08:04:04;98035.56;;;18.71;79.44
59194;BME280;44967;48.598;15.650;2023-06-10T08:06:30;98028.06;;;18.76;79.15
59194;BME280;44967;48.598;15.650;2023-06-10T08:08:56;98027.38;;;19.00;79.44
59194;BME280;44967;48.598;15.650;2023-06-10T08:11:21;98031.00;;;20.23;76.10
59194;BME280;44967;48.598;15.650;2023-06-10T08:13:47;98026.66;;;20.70;73.47
59194;BME280;44967;48.598;15.650;2023-06-10T08:16:13;98028.88;;;20.52;72.94
59194;BME280;44967;48.598;15.650;2023-06-10T08:18:38;98028.59;;;20.44;71.27
59194;BME280;44967;48.598;15.650;2023-06-10T08:21:04;98026.72;;;20.57;72.55
59194;BME280;44967;48.598;15.650;2023-06-10T08:23:30;98030.69;;;20.76;71.49
59194;BME280;44967;48.598;15.650;2023-06-10T08:25:59;98028.03;;;20.87;71.32
59194;BME280;44967;48.598;15.650;2023-06-10T08:28:25;98025.38;;;20.98;70.33
59194;BME280;44967;48.598;15.650;2023-06-10T08:30:50;98027.59;;;20.93;70.84
59194;BME280;44967;48.598;15.650;2023-06-10T08:33:16;98023.41;;;20.89;70.31
59194;BME280;44967;48.598;15.650;2023-06-10T08:35:42;98024.91;;;20.34;71.02
59194;BME280;44967;48.598;15.650;2023-06-10T08:38:07;98020.72;;;20.30;72.54
59194;BME280;44967;48.598;15.650;2023-06-10T08:40:33;98024.84;;;20.10;73.40
59194;BME280;44967;48.598;15.650;2023-06-10T08:43:13;98014.38;;;19.95;74.09
59194;BME280;44967;48.598;15.650;2023-06-10T08:45:45;98017.38;;;19.90;73.61
59194;BME280;44967;48.598;15.650;2023-06-10T08:48:14;98019.84;;;19.81;73.36
59194;BME280;44967;48.598;15.650;2023-06-10T08:50:41;98020.69;;;19.94;74.60
59194;BME280;44967;48.598;15.650;2023-06-10T08:53:08;98013.84;;;20.74;72.32
59194;BME280;44967;48.598;15.650;2023-06-10T08:55:36;98018.44;;;21.97;67.80
59194;BME280;44967;48.598;15.650;2023-06-10T08:58:03;98015.88;;;21.73;66.50
59194;BME280;44967;48.598;15.650;2023-06-10T09:00:31;98012.16;;;22.30;65.57
59194;BME280;44967;48.598;15.650;2023-06-10T09:02:58;98006.94;;;22.17;66.73
59194;BME280;44967;48.598;15.650;2023-06-10T09:05:24;98017.09;;;21.47;68.21
59194;BME280;44967;48.598;15.650;2023-06-10T09:07:51;98015.00;;;21.39;68.78
59194;BME280;44967;48.598;15.650;2023-06-10T09:10:17;98008.09;;;20.78;68.35
59194;BME280;44967;48.598;15.650;2023-06-10T09:12:44;98016.75;;;20.70;68.83
59194;BME280;44967;48.598;15.650;2023-06-10T09:15:13;98020.84;;;20.87;69.80
59194;BME280;44967;48.598;15.650;2023-06-10T09:17:40;98027.09;;;20.99;70.21
59194;BME280;44967;48.598;15.650;2023-06-10T09:20:10;98021.84;;;21.21;68.11
59194;BME280;44967;48.598;15.650;2023-06-10T09:22:41;98023.22;;;21.03;69.30
59194;BME280;44967;48.598;15.650;2023-06-10T09:25:11;98020.59;;;20.90;70.34
59194;BME280;44967;48.598;15.650;2023-06-10T09:27:48;98019.28;;;20.61;70.53
59194;BME280;44967;48.598;15.650;2023-06-10T09:30:29;98018.13;;;20.52;70.75
59194;BME280;44967;48.598;15.650;2023-06-10T09:32:57;98006.72;;;20.61;71.58
59194;BME280;44967;48.598;15.650;2023-06-10T09:35:26;98017.91;;;20.55;71.11
59194;BME280;44967;48.598;15.650;2023-06-10T09:37:55;98014.78;;;20.61;71.95
59194;BME280;44967;48.598;15.650;2023-06-10T09:40:21;98012.47;;;21.03;70.73
59194;BME280;44967;48.598;15.650;2023-06-10T09:42:56;98016.00;;;21.94;67.26
59194;BME280;44967;48.598;15.650;2023-06-10T09:45:22;98012.78;;;22.65;64.92
59194;BME280;44967;48.598;15.650;2023-06-10T09:47:52;98007.81;;;23.13;62.92
59194;BME280;44967;48.598;15.650;2023-06-10T09:50:18;98003.25;;;23.55;60.89
59194;BME280;44967;48.598;15.650;2023-06-10T09:52:45;98002.94;;;23.79;62.15
59194;BME280;44967;48.598;15.650;2023-06-10T09:55:11;97996.84;;;23.86;60.05
59194;BME280;44967;48.598;15.650;2023-06-10T09:57:37;97999.31;;;23.99;59.52
59194;BME280;44967;48.598;15.650;2023-06-10T10:00:11;98000.19;;;24.49;57.56
59194;BME280;44967;48.598;15.650;2023-06-10T10:02:51;97993.22;;;24.56;57.84
59194;BME280;44967;48.598;15.650;2023-06-10T10:05:18;97995.72;;;24.19;57.96
59194;BME280;44967;48.598;15.650;2023-06-10T10:07:45;97999.47;;;23.67;59.63
59194;BME280;44967;48.598;15.650;2023-06-10T10:10:12;98005.94;;;22.93;60.16
59194;BME280;44967;48.598;15.650;2023-06-10T10:12:40;98004.66;;;22.44;62.15
59194;BME280;44967;48.598;15.650;2023-06-10T10:15:10;97999.94;;;22.26;64.16
59194;BME280;44967;48.598;15.650;2023-06-10T10:17:58;98003.41;;;22.05;63.92
59194;BME280;44967;48.598;15.650;2023-06-10T10:20:31;97991.84;;;22.26;64.38
59194;BME280;44967;48.598;15.650;2023-06-10T10:22:57;97992.50;;;22.18;64.77
59194;BME280;44967;48.598;15.650;2023-06-10T10:25:28;97987.38;;;22.15;65.56
59194;BME280;44967;48.598;15.650;2023-06-10T10:27:59;97989.56;;;22.10;64.69
59194;BME280;44967;48.598;15.650;2023-06-10T10:30:30;97991.53;;;21.86;66.86
59194;BME280;44967;48.598;15.650;2023-06-10T10:33:12;97994.25;;;21.63;68.91
59194;BME280;44967;48.598;15.650;2023-06-10T10:35:40;97988.88;;;21.52;71.16
59194;BME280;44967;48.598;15.650;2023-06-10T10:38:06;97987.75;;;21.55;71.27
59194;BME280;44967;48.598;15.650;2023-06-10T10:40:32;97980.66;;;21.54;70.88
59194;BME280;44967;48.598;15.650;2023-06-10T10:42:59;97974.41;;;21.87;69.96
59194;BME280;44967;48.598;15.650;2023-06-10T10:45:28;97975.16;;;22.11;67.62
59194;BME280;44967;48.598;15.650;2023-06-10T10:47:55;97975.66;;;22.37;65.43
59194;BME280;44967;48.598;15.650;2023-06-10T10:50:22;97972.59;;;21.98;65.78
59194;BME280;44967;48.598;15.650;2023-06-10T10:52:56;97972.41;;;22.22;65.58
59194;BME280;44967;48.598;15.650;2023-06-10T10:55:24;97974.28;;;22.11;64.81
59194;BME280;44967;48.598;15.650;2023-06-10T10:58:04;97982.88;;;22.47;63.78
59194;BME280;44967;48.598;15.650;2023-06-10T11:00:37;97978.31;;;22.48;63.36
59194;BME280;44967;48.598;15.650;2023-06-10T11:05:40;97967.03;;;23.88;61.57
59194;BME280;44967;48.598;15.650;2023-06-10T11:08:08;97976.03;;;23.68;59.23
59194;BME280;44967;48.598;15.650;2023-06-10T11:10:36;97975.53;;;23.74;59.13
59194;BME280;44967;48.598;15.650;2023-06-10T11:13:21;97976.03;;;23.68;57.36
59194;BME280;44967;48.598;15.650;2023-06-10T11:15:50;97974.69;;;23.83;58.24
59194;BME280;44967;48.598;15.650;2023-06-10T11:18:26;97972.72;;;23.85;59.27
59194;BME280;44967;48.598;15.650;2023-06-10T11:28:41;97990.41;;;22.53;74.50
59194;BME280;44967;48.598;15.650;2023-06-10T11:31:08;97994.47;;;22.16;72.74
59194;BME280;44967;48.598;15.650;2023-06-10T11:33:38;97988.38;;;22.03;74.07
59194;BME280;44967;48.598;15.650;2023-06-10T11:36:07;97990.03;;;22.26;75.23
59194;BME280;44967;48.598;15.650;2023-06-10T11:38:33;97986.59;;;22.35;73.44
59194;BME280;44967;48.598;15.650;2023-06-10T11:40:59;97976.06;;;22.21;73.78
59194;BME280;44967;48.598;15.650;2023-06-10T11:43:25;97974.34;;;22.31;72.59
59194;BME280;44967;48.598;15.650;2023-06-10T11:45:54;97971.13;;;22.37;72.87
59194;BME280;44967;48.598;15.650;2023-06-10T11:48:21;97975.59;;;22.27;70.55
59194;BME280;44967;48.598;15.650;2023-06-10T11:50:49;97973.06;;;22.46;68.76
59194;BME280;44967;48.598;15.650;2023-06-10T11:53:15;97966.66;;;22.59;68.51
59194;BME280;44967;48.598;15.650;2023-06-10T11:55:48;97962.78;;;22.83;69.08
59194;BME280;44967;48.598;15.650;2023-06-10T11:58:14;97962.47;;;23.28;67.97
59194;BME280;44967;48.598;15.650;2023-06-10T12:00:50;97954.47;;;23.17;65.19
59194;BME280;44967;48.598;15.650;2023-06-10T12:03:17;97956.16;;;23.38;65.78
59194;BME280;44967;48.598;15.650;2023-06-10T12:05:59;97957.53;;;23.54;61.81
59194;BME280;44967;48.598;15.650;2023-06-10T12:08:26;97956.84;;;23.10;63.76
59194;BME280;44967;48.598;15.650;2023-06-10T12:10:53;97946.47;;;22.85;64.19
59194;BME280;44967;48.598;15.650;2023-06-10T12:13:19;97951.78;;;22.96;63.95
59194;BME280;44967;48.598;15.650;2023-06-10T12:15:48;97949.09;;;22.96;63.58
59194;BME280;44967;48.598;15.650;2023-06-10T12:18:21;97950.22;;;23.14;63.38
59194;BME280;44967;48.598;15.650;2023-06-10T12:20:47;97938.97;;;23.09;63.67
59194;BME280;44967;48.598;15.650;2023-06-10T12:23:15;97938.59;;;23.23;64.77
59194;BME280;44967;48.598;15.650;2023-06-10T12:25:54;97939.31;;;22.95;63.80
59194;BME280;44967;48.598;15.650;2023-06-10T12:28:24;97951.53;;;22.46;63.45
59194;BME280;44967;48.598;15.650;2023-06-10T12:30:50;97948.09;;;22.97;63.88
59194;BME280;44967;48.598;15.650;2023-06-10T12:33:20;97944.72;;;23.25;63.11
59194;BME280;44967;48.598;15.650;2023-06-10T12:35:50;97936.22;;;22.79;64.07
59194;BME280;44967;48.598;15.650;2023-06-10T12:38:25;97940.69;;;22.58;66.54
59194;BME280;44967;48.598;15.650;2023-06-10T12:40:57;97946.94;;;22.26;65.85
59194;BME280;44967;48.598;15.650;2023-06-10T12:43:26;97951.31;;;22.38;69.32
59194;BME280;44967;48.598;15.650;2023-06-10T12:45:52;97953.47;;;22.55;74.25
59194;BME280;44967;48.598;15.650;2023-06-10T12:48:19;97953.09;;;22.17;73.81
59194;BME280;44967;48.598;15.650;2023-06-10T12:50:53;97955.03;;;22.26;73.33
59194;BME280;44967;48.598;15.650;2023-06-10T12:53:20;97944.56;;;22.01;73.66
59194;BME280;44967;48.598;15.650;2023-06-10T12:55:47;97946.91;;;21.94;75.90
59194;BME280;44967;48.598;15.650;2023-06-10T12:58:13;97946.06;;;21.72;77.12
59194;BME280;44967;48.598;15.650;2023-06-10T13:00:39;97947.53;;;21.53;78.69
59194;BME280;44967;48.598;15.650;2023-06-10T13:03:06;97945.38;;;21.36;79.95
59194;BME280;44967;48.598;15.650;2023-06-10T13:05:32;97947.19;;;21.25;78.69